createdAt,value
2023-05-11T00:00:32.494Z,4.7
2023-05-11T00:01:40.811Z,4.7
2023-05-11T00:02:49.197Z,4.7
2023-05-11T00:03:57.671Z,4.9
2023-05-11T00:05:05.963Z,4.9
2023-05-11T00:06:14.275Z,4.9
2023-05-11T00:07:22.800Z,4.6
2023-05-11T00:08:31.104Z,4.6
2023-05-11T00:09:39.427Z,4.6
2023-05-11T00:10:47.972Z,5.7
2023-05-11T00:11:56.278Z,5.7
2023-05-11T00:13:04.608Z,5.7
2023-05-11T00:14:13.123Z,5
2023-05-11T00:15:21.483Z,5
2023-05-11T00:16:29.808Z,5
2023-05-11T00:17:38.282Z,4.8
2023-05-11T00:18:46.604Z,4.8
2023-05-11T00:19:54.873Z,4.8
2023-05-11T00:21:03.422Z,4.5
2023-05-11T00:22:11.724Z,4.5
2023-05-11T00:23:20.033Z,4.5
2023-05-11T00:24:28.566Z,5.7
2023-05-11T00:25:36.867Z,5.7
2023-05-11T00:26:45.190Z,5.7
2023-05-11T00:27:53.723Z,4.7
2023-05-11T00:29:02.026Z,4.7
2023-05-11T00:30:10.324Z,4.7
2023-05-11T00:31:18.884Z,5.1
2023-05-11T00:32:27.238Z,5.1
2023-05-11T00:33:35.529Z,5.1
2023-05-11T00:34:44.029Z,4.9
2023-05-11T00:35:52.348Z,4.9
2023-05-11T00:37:00.664Z,4.9
2023-05-11T00:38:09.141Z,5.3
2023-05-11T00:39:17.457Z,5.3
2023-05-11T00:40:25.785Z,5.3
2023-05-11T00:41:34.298Z,5.2
2023-05-11T00:42:42.598Z,5.2
2023-05-11T00:43:50.902Z,5.2
2023-05-11T00:44:59.424Z,5.3
2023-05-11T00:46:07.731Z,5.3
2023-05-11T00:47:16.062Z,5.3
2023-05-11T00:48:24.533Z,4.9
2023-05-11T00:49:32.843Z,4.9
2023-05-11T00:50:41.148Z,4.9
2023-05-11T00:51:49.660Z,5.1
2023-05-11T00:52:57.956Z,5.1
2023-05-11T00:54:06.260Z,5.1
2023-05-11T00:55:14.813Z,5.1
2023-05-11T00:56:23.128Z,5.1
2023-05-11T00:57:31.445Z,5.1
2023-05-11T00:58:39.985Z,4.9
2023-05-11T00:59:48.303Z,4.9
2023-05-11T01:00:56.640Z,4.9
2023-05-11T01:02:05.155Z,4.6
2023-05-11T01:03:13.518Z,4.6
2023-05-11T01:04:21.812Z,4.6
2023-05-11T01:05:30.324Z,5.4
2023-05-11T01:06:38.627Z,5.4
2023-05-11T01:07:46.926Z,5.4
2023-05-11T01:08:55.466Z,5.4
2023-05-11T01:10:03.774Z,5.4
2023-05-11T01:11:12.099Z,5.4
2023-05-11T01:12:20.600Z,5.2
2023-05-11T01:15:48.887Z,5.2
2023-05-11T01:16:57.461Z,5
2023-05-11T01:18:05.822Z,5
2023-05-11T01:19:14.105Z,5
2023-05-11T01:20:22.615Z,5
2023-05-11T01:21:30.925Z,5
2023-05-11T01:22:39.273Z,5
2023-05-11T01:23:47.792Z,5
2023-05-11T01:24:56.131Z,5
2023-05-11T01:26:04.458Z,5
2023-05-11T01:27:12.984Z,4.5
2023-05-11T01:28:21.309Z,4.5
2023-05-11T01:29:29.621Z,4.5
2023-05-11T01:30:38.150Z,4.6
2023-05-11T01:31:46.496Z,4.6
2023-05-11T01:32:54.905Z,4.6
2023-05-11T01:34:03.360Z,5.2
2023-05-11T01:35:11.700Z,5.2
2023-05-11T01:36:19.994Z,5.2
2023-05-11T01:37:28.550Z,5.1
2023-05-11T01:38:36.851Z,5.1
2023-05-11T01:39:45.181Z,5.1
2023-05-11T01:40:53.714Z,4.6
2023-05-11T01:42:02.075Z,4.6
2023-05-11T01:43:10.388Z,4.6
2023-05-11T01:44:18.933Z,4.5
2023-05-11T01:45:27.267Z,4.5
2023-05-11T01:46:35.800Z,4.5
2023-05-11T01:47:44.170Z,4.8
2023-05-11T01:48:52.468Z,4.8
2023-05-11T01:50:00.784Z,4.8
2023-05-11T01:51:09.363Z,5.3
2023-05-11T01:52:17.667Z,5.3
2023-05-11T01:53:25.999Z,5.3
2023-05-11T01:54:34.520Z,4.5
2023-05-11T01:55:42.845Z,4.5
2023-05-11T01:56:51.167Z,4.5
2023-05-11T01:57:59.690Z,4.6
2023-05-11T01:59:08.005Z,4.6
2023-05-11T02:00:16.564Z,4.6
2023-05-11T02:01:24.926Z,5.2
2023-05-11T02:02:33.292Z,5.2
2023-05-11T02:03:41.644Z,5.2
2023-05-11T02:04:50.072Z,5.6
2023-05-11T02:05:58.378Z,5.6
2023-05-11T02:07:06.718Z,5.6
2023-05-11T02:08:15.232Z,5.2
2023-05-11T02:09:23.560Z,5.2
2023-05-11T02:10:31.917Z,5.2
2023-05-11T02:11:40.445Z,5.4
2023-05-11T02:12:48.762Z,5.4
2023-05-11T02:13:57.098Z,5.4
2023-05-11T02:15:05.640Z,4.8
2023-05-11T02:16:13.962Z,4.8
2023-05-11T02:17:22.279Z,4.8
2023-05-11T02:18:30.800Z,4.3
2023-05-11T02:19:39.130Z,4.3
2023-05-11T02:20:47.455Z,4.3
2023-05-11T02:21:55.986Z,4
2023-05-11T02:23:04.319Z,4
2023-05-11T02:24:12.656Z,4
2023-05-11T02:25:21.180Z,4
2023-05-11T02:26:29.550Z,4
2023-05-11T02:27:37.874Z,4
2023-05-11T02:28:46.428Z,4.2
2023-05-11T02:29:54.748Z,4.2
2023-05-11T02:31:03.078Z,4.2
2023-05-11T02:32:11.596Z,4.6
2023-05-11T02:33:19.954Z,4.6
2023-05-11T02:34:28.289Z,4.6
2023-05-11T02:35:36.806Z,5.5
2023-05-11T02:36:45.131Z,5.5
2023-05-11T02:37:53.485Z,5.5
2023-05-11T02:39:02.029Z,6.2
2023-05-11T02:40:10.339Z,6.2
2023-05-11T02:41:18.655Z,6.2
2023-05-11T02:42:27.199Z,5.4
2023-05-11T02:43:35.506Z,5.4
2023-05-11T02:44:43.822Z,5.4
2023-05-11T02:45:52.341Z,6
2023-05-11T02:47:00.717Z,6
2023-05-11T02:48:09.044Z,6
2023-05-11T02:49:17.515Z,5
2023-05-11T02:50:25.867Z,5
2023-05-11T02:51:34.192Z,5
2023-05-11T02:52:42.709Z,4.8
2023-05-11T02:53:51.048Z,4.8
2023-05-11T02:54:59.394Z,4.8
2023-05-11T02:56:07.900Z,4.8
2023-05-11T02:57:16.240Z,4.8
2023-05-11T02:58:24.572Z,4.8
2023-05-11T02:59:33.094Z,5.6
2023-05-11T03:00:41.487Z,5.6
2023-05-11T03:01:49.856Z,5.6
2023-05-11T03:02:58.320Z,4.9
2023-05-11T03:04:06.592Z,4.9
2023-05-11T03:05:14.911Z,4.9
2023-05-11T03:06:23.459Z,5.3
2023-05-11T03:07:31.783Z,5.3
2023-05-11T03:08:40.098Z,5.3
2023-05-11T03:09:48.618Z,5.1
2023-05-11T03:10:56.964Z,5.1
2023-05-11T03:12:05.268Z,5.1
2023-05-11T03:13:13.792Z,6.2
2023-05-11T03:14:22.120Z,6.2
2023-05-11T03:15:30.464Z,6.2
2023-05-11T03:16:39.028Z,6
2023-05-11T03:17:47.332Z,6
2023-05-11T03:18:55.757Z,6
2023-05-11T03:20:04.172Z,6.3
2023-05-11T03:21:12.478Z,6.3
2023-05-11T03:22:20.801Z,6.3
2023-05-11T03:23:29.329Z,6
2023-05-11T03:24:37.654Z,6
2023-05-11T03:25:46.014Z,6
2023-05-11T03:26:54.566Z,6
2023-05-11T03:28:02.850Z,6
2023-05-11T03:29:11.169Z,6
2023-05-11T03:30:19.850Z,6
2023-05-11T03:31:28.086Z,6
2023-05-11T03:32:36.350Z,6
2023-05-11T03:33:44.871Z,6.1
2023-05-11T03:34:53.207Z,6.1
2023-05-11T03:36:01.518Z,6.1
2023-05-11T03:37:10.043Z,6.4
2023-05-11T03:38:18.384Z,6.4
2023-05-11T03:39:26.703Z,6.4
2023-05-11T03:40:35.236Z,6.7
2023-05-11T03:41:43.556Z,6.7
2023-05-11T03:42:51.898Z,6.7
2023-05-11T03:44:00.431Z,6.7
2023-05-11T03:45:08.734Z,6.7
2023-05-11T03:46:17.111Z,6.7
2023-05-11T03:47:25.610Z,7.7
2023-05-11T03:48:33.928Z,7.7
2023-05-11T03:49:42.252Z,7.7
2023-05-11T03:50:50.779Z,7.9
2023-05-11T03:51:59.117Z,7.9
2023-05-11T03:53:07.437Z,7.9
2023-05-11T03:54:15.980Z,8.5
2023-05-11T03:55:24.300Z,8.5
2023-05-11T03:56:32.616Z,8.5
2023-05-11T03:57:41.150Z,8.4
2023-05-11T03:58:49.502Z,8.4
2023-05-11T03:59:57.806Z,8.4
2023-05-11T04:01:06.329Z,7.3
2023-05-11T04:02:14.673Z,7.3
2023-05-11T04:03:23.141Z,7.3
2023-05-11T04:04:31.628Z,5.6
2023-05-11T04:05:39.827Z,5.6
2023-05-11T04:06:48.153Z,5.6
2023-05-11T04:07:56.682Z,5.9
2023-05-11T04:09:05.009Z,5.9
2023-05-11T04:10:13.338Z,5.9
2023-05-11T04:11:21.862Z,5.3
2023-05-11T04:12:30.198Z,5.3
2023-05-11T04:13:38.511Z,5.3
2023-05-11T04:14:47.080Z,6.3
2023-05-11T04:15:55.407Z,6.3
2023-05-11T04:17:03.733Z,6.3
2023-05-11T04:18:12.267Z,7.4
2023-05-11T04:19:20.585Z,7.4
2023-05-11T04:20:28.893Z,7.4
2023-05-11T04:21:37.453Z,7.2
2023-05-11T04:22:45.770Z,7.2
2023-05-11T04:23:54.106Z,7.2
2023-05-11T04:25:02.650Z,6.7
2023-05-11T04:26:10.984Z,6.7
2023-05-11T04:27:19.311Z,6.7
2023-05-11T04:28:27.920Z,5
2023-05-11T04:29:36.175Z,5
2023-05-11T04:30:44.543Z,5
2023-05-11T04:31:53.110Z,4.6
2023-05-11T04:33:01.419Z,4.6
2023-05-11T04:34:09.695Z,4.6
2023-05-11T04:35:18.229Z,4.6
2023-05-11T04:36:26.562Z,4.6
2023-05-11T04:37:34.897Z,4.6
2023-05-11T04:38:43.417Z,4.1
2023-05-11T04:39:51.735Z,4.1
2023-05-11T04:41:00.093Z,4.1
2023-05-11T04:42:08.635Z,3
2023-05-11T04:43:16.939Z,3
2023-05-11T04:44:25.266Z,3
2023-05-11T04:45:33.807Z,3.5
2023-05-11T04:46:42.169Z,3.5
2023-05-11T04:47:50.486Z,3.5
2023-05-11T04:48:58.961Z,4.1
2023-05-11T04:50:07.302Z,4.1
2023-05-11T04:51:15.618Z,4.1
2023-05-11T04:52:24.158Z,3.8
2023-05-11T04:53:32.458Z,3.8
2023-05-11T04:54:40.771Z,3.8
2023-05-11T04:55:49.308Z,4.1
2023-05-11T04:56:57.626Z,4.1
2023-05-11T04:58:05.976Z,4.1
2023-05-11T04:59:14.494Z,3.3
2023-05-11T05:00:22.926Z,3.3
2023-05-11T05:01:31.207Z,3.3
2023-05-11T05:02:39.751Z,4
2023-05-11T05:03:48.057Z,4
2023-05-11T05:04:56.348Z,4
2023-05-11T05:06:04.886Z,5.4
2023-05-11T05:07:13.220Z,5.4
2023-05-11T05:08:21.562Z,5.4
2023-05-11T05:09:30.097Z,4
2023-05-11T05:10:38.416Z,4
2023-05-11T05:11:46.755Z,4
2023-05-11T05:12:55.296Z,5.2
2023-05-11T05:14:03.651Z,5.2
2023-05-11T05:15:11.979Z,5.2
2023-05-11T05:16:20.538Z,4.6
2023-05-11T05:17:28.854Z,4.6
2023-05-11T05:18:37.224Z,4.6
2023-05-11T05:19:45.716Z,4.6
2023-05-11T05:20:54.035Z,4.6
2023-05-11T05:22:02.357Z,4.6
2023-05-11T05:23:10.884Z,4.9
2023-05-11T05:24:19.213Z,4.9
2023-05-11T05:25:27.529Z,4.9
2023-05-11T05:26:36.059Z,4.2
2023-05-11T05:27:44.379Z,4.2
2023-05-11T05:28:52.704Z,4.2
2023-05-11T05:30:01.225Z,4.3
2023-05-11T05:31:09.585Z,4.3
2023-05-11T05:32:17.894Z,4.3
2023-05-11T05:33:26.431Z,4.4
2023-05-11T05:34:34.774Z,4.4
2023-05-11T05:35:43.063Z,4.4
2023-05-11T05:36:51.612Z,5.4
2023-05-11T05:37:59.948Z,5.4
2023-05-11T05:39:08.269Z,5.4
2023-05-11T05:40:16.915Z,4.2
2023-05-11T05:41:25.109Z,4.2
2023-05-11T05:42:33.445Z,4.2
2023-05-11T05:43:41.978Z,4.3
2023-05-11T05:44:50.312Z,4.3
2023-05-11T05:45:58.670Z,4.3
2023-05-11T05:47:07.174Z,5.3
2023-05-11T05:48:15.505Z,5.3
2023-05-11T05:49:23.831Z,5.3
2023-05-11T05:50:32.411Z,8.2
2023-05-11T05:51:40.730Z,8.2
2023-05-11T05:52:49.058Z,8.2
2023-05-11T05:53:57.581Z,4.3
2023-05-11T05:55:05.911Z,4.3
2023-05-11T05:56:14.243Z,4.3
2023-05-11T05:57:22.810Z,4.8
2023-05-11T05:58:31.110Z,4.8
2023-05-11T05:59:39.445Z,4.8
2023-05-11T06:00:48.019Z,3.7
2023-05-11T06:01:56.352Z,3.7
2023-05-11T06:03:04.752Z,3.7
2023-05-11T06:04:13.354Z,3.6
2023-05-11T06:05:21.612Z,3.6
2023-05-11T06:06:30.005Z,3.6
2023-05-11T06:07:38.511Z,5.3
2023-05-11T06:08:46.825Z,5.3
2023-05-11T06:09:55.158Z,5.3
2023-05-11T06:11:03.686Z,3.1
2023-05-11T06:12:12.028Z,3.1
2023-05-11T06:13:20.364Z,3.1
2023-05-11T06:14:28.909Z,3.7
2023-05-11T06:15:37.242Z,3.7
2023-05-11T06:16:45.626Z,3.7
2023-05-11T06:17:54.228Z,4.4
2023-05-11T06:19:02.549Z,4.4
2023-05-11T06:20:10.824Z,4.4
2023-05-11T06:21:19.367Z,3.5
2023-05-11T06:22:27.710Z,3.5
2023-05-11T06:23:36.030Z,3.5
2023-05-11T06:24:44.561Z,4.1
2023-05-11T06:25:52.889Z,4.1
2023-05-11T06:27:01.226Z,4.1
2023-05-11T06:28:09.788Z,4
2023-05-11T06:29:18.133Z,4
2023-05-11T06:30:26.445Z,4
2023-05-11T06:31:35.011Z,3.8
2023-05-11T06:32:43.313Z,3.8
2023-05-11T06:33:51.631Z,3.8
2023-05-11T06:35:00.157Z,4
2023-05-11T06:36:08.487Z,4
2023-05-11T06:37:16.795Z,4
2023-05-11T06:38:25.360Z,3.4
2023-05-11T06:39:33.665Z,3.4
2023-05-11T06:40:41.985Z,3.4
2023-05-11T06:41:50.541Z,1.7
2023-05-11T06:42:58.887Z,1.7
2023-05-11T06:44:07.198Z,1.7
2023-05-11T06:45:15.735Z,2.7
2023-05-11T06:46:24.079Z,2.7
2023-05-11T06:47:32.401Z,2.7
2023-05-11T06:48:40.896Z,2.6
2023-05-11T06:49:49.224Z,2.6
2023-05-11T06:50:57.569Z,2.6
2023-05-11T06:52:06.103Z,2.1
2023-05-11T06:53:14.448Z,2.1
2023-05-11T06:54:22.812Z,2.1
2023-05-11T06:55:31.297Z,4
2023-05-11T06:56:39.625Z,4
2023-05-11T06:57:47.962Z,4
2023-05-11T06:58:56.625Z,1.6
2023-05-11T07:00:04.866Z,1.6
2023-05-11T07:01:13.279Z,1.6
2023-05-11T07:02:21.735Z,1.7
2023-05-11T07:03:30.051Z,1.7
2023-05-11T07:04:38.438Z,1.7
2023-05-11T07:05:46.963Z,1.8
2023-05-11T07:06:55.267Z,1.8
2023-05-11T07:08:03.578Z,1.8
2023-05-11T07:09:12.128Z,1.5
2023-05-11T07:10:20.665Z,1.5
2023-05-11T07:11:28.789Z,1.5
2023-05-11T07:12:37.343Z,1.3
2023-05-11T07:13:45.679Z,1.3
2023-05-11T07:14:54.025Z,1.3
2023-05-11T07:16:02.556Z,5.5
2023-05-11T07:17:10.954Z,5.5
2023-05-11T07:18:19.273Z,5.5
2023-05-11T07:19:27.800Z,5.4
2023-05-11T07:20:36.125Z,5.4
2023-05-11T07:21:44.443Z,5.4
2023-05-11T07:22:52.986Z,3.4
2023-05-11T07:24:01.317Z,3.4
2023-05-11T07:25:10.961Z,3.4
2023-05-11T07:26:19.558Z,1.8
2023-05-11T07:27:27.826Z,1.8
2023-05-11T07:28:36.162Z,1.8
2023-05-11T07:29:44.713Z,1.2
2023-05-11T07:30:53.051Z,1.2
2023-05-11T07:32:01.397Z,1.2
2023-05-11T07:33:09.948Z,1.4
2023-05-11T07:34:18.273Z,1.4
2023-05-11T07:35:26.594Z,1.4
2023-05-11T07:36:35.128Z,1.7
2023-05-11T07:37:43.444Z,1.7
2023-05-11T07:38:51.774Z,1.7
2023-05-11T07:40:00.317Z,1.4
2023-05-11T07:41:10.226Z,1.4
2023-05-11T07:42:17.012Z,1.4
2023-05-11T07:43:25.505Z,1.2
2023-05-11T07:44:33.845Z,1.2
2023-05-11T07:45:42.163Z,1.2
2023-05-11T07:46:50.732Z,1.4
2023-05-11T07:47:59.057Z,1.4
2023-05-11T07:49:16.936Z,1.4
2023-05-11T07:50:16.939Z,2.6
2023-05-11T07:51:24.220Z,2.6
2023-05-11T07:52:32.567Z,2.6
2023-05-11T07:53:41.074Z,2.8
2023-05-11T07:54:49.418Z,2.8
2023-05-11T07:55:57.715Z,2.8
2023-05-11T07:57:06.286Z,1.7
2023-05-11T07:58:14.680Z,1.7
2023-05-11T07:59:22.949Z,1.7
2023-05-11T08:00:31.487Z,2
2023-05-11T08:01:39.879Z,2
2023-05-11T08:02:48.241Z,2
2023-05-11T08:03:56.709Z,3
2023-05-11T08:05:05.034Z,3
2023-05-11T08:06:13.389Z,3
2023-05-11T08:07:21.892Z,1.7
2023-05-11T08:08:30.224Z,1.7
2023-05-11T08:09:38.534Z,1.7
2023-05-11T08:10:47.063Z,2.7
2023-05-11T08:11:55.395Z,2.7
2023-05-11T08:13:03.724Z,2.7
2023-05-11T08:14:12.378Z,2.3
2023-05-11T08:15:20.653Z,2.3
2023-05-11T08:16:28.961Z,2.3
2023-05-11T08:17:37.531Z,2.5
2023-05-11T08:18:45.893Z,2.5
2023-05-11T08:19:54.189Z,2.5
2023-05-11T08:21:02.738Z,1.6
2023-05-11T08:22:11.074Z,1.6
2023-05-11T08:23:19.416Z,1.6
2023-05-11T08:24:27.952Z,3.3
2023-05-11T08:25:36.289Z,3.3
2023-05-11T08:26:44.627Z,3.3
2023-05-11T08:27:53.174Z,1.3
2023-05-11T08:29:01.576Z,1.3
2023-05-11T08:30:11.613Z,1.3
2023-05-11T08:31:18.502Z,2.2
2023-05-11T08:32:26.831Z,2.2
2023-05-11T08:33:37.891Z,2.2
2023-05-11T08:34:43.807Z,1.5
2023-05-11T08:35:52.049Z,1.5
2023-05-11T08:37:00.398Z,1.5
2023-05-11T08:38:08.949Z,1.5
2023-05-11T08:39:28.475Z,1.5
2023-05-11T08:40:25.798Z,1.5
2023-05-11T08:41:34.320Z,1.2
2023-05-11T08:42:42.648Z,1.2
2023-05-11T08:43:50.975Z,1.2
2023-05-11T08:44:59.524Z,4.4
2023-05-11T08:46:07.897Z,4.4
2023-05-11T08:47:21.736Z,4.4
2023-05-11T08:48:24.700Z,1.7
2023-05-11T08:49:33.033Z,1.7
2023-05-11T08:50:41.362Z,1.7
2023-05-11T08:51:49.892Z,2.9
2023-05-11T08:52:58.228Z,2.9
2023-05-11T08:54:06.565Z,2.9
2023-05-11T08:55:15.125Z,1.3
2023-05-11T08:56:23.438Z,1.3
2023-05-11T08:57:31.750Z,1.3
2023-05-11T08:58:40.292Z,0.9
2023-05-11T08:59:48.804Z,0.9
2023-05-11T09:00:57.179Z,0.9
2023-05-11T09:02:05.697Z,2
2023-05-11T09:03:14.018Z,2
2023-05-11T09:04:22.301Z,2
2023-05-11T09:05:30.872Z,1.4
2023-05-11T09:06:39.191Z,1.4
2023-05-11T09:07:47.512Z,1.4
2023-05-11T09:08:56.055Z,1.1
2023-05-11T09:10:04.391Z,1.1
2023-05-11T09:11:12.716Z,1.1
2023-05-11T09:12:21.269Z,1.7
2023-05-11T09:13:29.596Z,1.7
2023-05-11T09:14:37.914Z,1.7
2023-05-11T09:15:46.471Z,1.8
2023-05-11T09:16:54.860Z,1.8
2023-05-11T09:18:03.172Z,1.8
2023-05-11T09:19:11.655Z,1.4
2023-05-11T09:20:20.242Z,1.4
2023-05-11T09:21:28.304Z,1.4
2023-05-11T09:22:36.940Z,2.1
2023-05-11T09:23:45.200Z,2.1
2023-05-11T09:24:53.534Z,2.1
2023-05-11T09:26:02.051Z,1.3
2023-05-11T09:27:10.377Z,1.3
2023-05-11T09:29:30.361Z,1.1
2023-05-11T09:30:35.595Z,1.1
2023-05-11T09:31:43.954Z,1.1
2023-05-11T09:32:52.736Z,1
2023-05-11T09:34:01.006Z,1
2023-05-11T09:35:09.122Z,1
2023-05-11T09:36:17.699Z,0.7
2023-05-11T09:37:26.027Z,0.7
2023-05-11T09:38:34.358Z,0.7
2023-05-11T09:39:58.646Z,1.1
2023-05-11T09:40:51.257Z,1.1
2023-05-11T09:41:59.592Z,1.1
2023-05-11T09:43:08.127Z,0.7
2023-05-11T09:44:16.525Z,0.7
2023-05-11T09:45:24.870Z,0.7
2023-05-11T09:46:33.451Z,1.2
2023-05-11T09:47:41.865Z,1.2
2023-05-11T09:48:50.134Z,1.2
2023-05-11T09:49:58.701Z,1
2023-05-11T09:51:07.044Z,1
2023-05-11T09:52:15.374Z,1
2023-05-11T09:53:25.420Z,1.4
2023-05-11T09:54:32.265Z,1.4
2023-05-11T09:55:40.635Z,1.4
2023-05-11T09:56:49.173Z,1.5
2023-05-11T09:57:57.523Z,1.5
2023-05-11T09:59:05.862Z,1.5
2023-05-11T10:00:14.430Z,1.6
2023-05-11T10:01:22.759Z,1.6
2023-05-11T10:02:31.162Z,1.6
2023-05-11T10:03:39.688Z,1.2
2023-05-11T10:04:47.979Z,1.2
2023-05-11T10:05:56.347Z,1.2
2023-05-11T10:07:04.860Z,1.1
2023-05-11T10:08:13.186Z,1.1
2023-05-11T10:09:21.547Z,1.1
2023-05-11T10:10:30.085Z,1.7
2023-05-11T10:11:38.411Z,1.7
2023-05-11T10:12:46.768Z,1.7
2023-05-11T10:13:55.311Z,1.6
2023-05-11T10:15:03.629Z,1.6
2023-05-11T10:16:12.116Z,1.6
2023-05-11T10:17:20.641Z,1.7
2023-05-11T10:18:28.993Z,1.7
2023-05-11T10:19:37.293Z,1.7
2023-05-11T10:20:45.849Z,2.1
2023-05-11T10:21:54.235Z,2.1
2023-05-11T10:23:02.534Z,2.1
2023-05-11T10:24:11.082Z,2.1
2023-05-11T10:25:19.401Z,2.1
2023-05-11T10:26:27.758Z,2.1
2023-05-11T10:27:36.334Z,2.4
2023-05-11T10:28:44.672Z,2.4
2023-05-11T10:29:52.997Z,2.4
2023-05-11T10:31:01.536Z,2.4
2023-05-11T10:32:09.912Z,2.4
2023-05-11T10:33:18.242Z,2.4
2023-05-11T10:34:26.797Z,2.6
2023-05-11T10:35:35.145Z,2.6
2023-05-11T10:36:43.523Z,2.6
2023-05-11T10:37:52.104Z,2.6
2023-05-11T10:39:00.426Z,2.6
2023-05-11T10:40:08.794Z,2.6
2023-05-11T10:41:17.339Z,2.7
2023-05-11T10:42:25.662Z,2.7
2023-05-11T10:43:34.005Z,2.7
2023-05-11T10:44:42.567Z,3.2
2023-05-11T10:45:50.964Z,3.2
2023-05-11T10:46:59.266Z,3.2
2023-05-11T10:48:07.812Z,3.6
2023-05-11T10:49:16.140Z,3.6
2023-05-11T10:50:24.488Z,3.6
2023-05-11T10:51:33.053Z,1.6
2023-05-11T10:52:41.385Z,1.6
2023-05-11T10:53:49.766Z,1.6
2023-05-11T10:54:58.290Z,2.2
2023-05-11T10:56:06.664Z,2.2
2023-05-11T10:57:15.022Z,2.2
2023-05-11T10:58:23.592Z,2.1
2023-05-11T10:59:31.932Z,2.1
2023-05-11T11:00:40.303Z,2.1
2023-05-11T11:01:48.874Z,3
2023-05-11T11:02:57.248Z,3
2023-05-11T11:04:05.550Z,3
2023-05-11T11:05:14.239Z,2.4
2023-05-11T11:06:22.545Z,2.4
2023-05-11T11:07:30.901Z,2.4
2023-05-11T11:08:39.442Z,2.8
2023-05-11T11:09:47.893Z,2.8
2023-05-11T11:10:56.169Z,2.8
2023-05-11T11:12:04.716Z,5.8
2023-05-11T11:13:13.064Z,5.8
2023-05-11T11:14:21.438Z,5.8
2023-05-11T11:15:29.989Z,3
2023-05-11T11:16:38.363Z,3
2023-05-11T11:17:46.704Z,3
2023-05-11T11:18:55.277Z,3.3
2023-05-11T11:20:03.593Z,3.3
2023-05-11T11:21:12.015Z,3.3
2023-05-11T11:22:20.567Z,2.5
2023-05-11T11:23:28.911Z,2.5
2023-05-11T11:24:37.292Z,2.5
2023-05-11T11:25:45.857Z,2.3
2023-05-11T11:26:54.178Z,2.3
2023-05-11T11:28:02.566Z,2.3
2023-05-11T11:29:11.131Z,3.1
2023-05-11T11:30:19.539Z,3.1
2023-05-11T11:31:27.912Z,3.1
2023-05-11T11:32:36.467Z,2.7
2023-05-11T11:33:44.755Z,2.7
2023-05-11T11:34:53.114Z,2.7
2023-05-11T11:36:01.729Z,2.4
2023-05-11T11:37:10.057Z,2.4
2023-05-11T11:38:18.369Z,2.4
2023-05-11T11:39:26.958Z,2.9
2023-05-11T11:40:43.104Z,2.9
2023-05-11T11:41:43.659Z,2.9
2023-05-11T11:42:52.210Z,2.3
2023-05-11T11:44:00.616Z,2.3
2023-05-11T11:45:08.964Z,2.3
2023-05-11T11:46:17.534Z,3
2023-05-11T11:47:25.890Z,3
2023-05-11T11:48:34.252Z,3
2023-05-11T11:49:42.808Z,3.5
2023-05-11T11:50:51.159Z,3.5
2023-05-11T11:51:59.529Z,3.5
2023-05-11T11:53:08.105Z,3.3
2023-05-11T11:54:16.446Z,3.3
2023-05-11T11:55:24.803Z,3.3
2023-05-11T11:56:33.379Z,3.1
2023-05-11T11:57:41.779Z,3.1
2023-05-11T11:58:50.080Z,3.1
2023-05-11T11:59:58.669Z,3.4
2023-05-11T12:01:07.053Z,3.4
2023-05-11T12:02:15.439Z,3.4
2023-05-11T12:03:24.054Z,5.5
2023-05-11T12:04:32.437Z,5.5
2023-05-11T12:05:40.700Z,5.5
2023-05-11T12:06:49.284Z,4.3
2023-05-11T12:07:57.628Z,4.3
2023-05-11T12:09:05.979Z,4.3
2023-05-11T12:10:14.633Z,5.3
2023-05-11T12:11:22.947Z,5.3
2023-05-11T12:12:31.301Z,5.3
2023-05-11T12:13:39.892Z,8.2
2023-05-11T12:14:48.211Z,8.2
2023-05-11T12:15:56.616Z,8.2
2023-05-11T12:17:06.012Z,9.1
2023-05-11T12:18:14.208Z,9.1
2023-05-11T12:19:22.632Z,9.1
2023-05-11T12:20:31.216Z,7.8
2023-05-11T12:21:39.582Z,7.8
2023-05-11T12:22:47.969Z,7.8
2023-05-11T12:23:56.532Z,8.3
2023-05-11T12:25:04.908Z,8.3
2023-05-11T12:26:13.256Z,8.3
2023-05-11T12:27:21.813Z,10
2023-05-11T12:28:30.189Z,10
2023-05-11T12:29:38.563Z,10
2023-05-11T12:30:47.236Z,10.2
2023-05-11T12:31:55.606Z,10.2
2023-05-11T12:33:03.960Z,10.2
2023-05-11T12:34:12.532Z,11.8
2023-05-11T12:35:20.931Z,11.8
2023-05-11T12:36:29.255Z,11.8
2023-05-11T12:37:37.842Z,11.1
2023-05-11T12:38:46.189Z,11.1
2023-05-11T12:39:54.615Z,11.1
2023-05-11T12:41:03.172Z,10.1
2023-05-11T12:42:11.521Z,10.1
2023-05-11T12:43:19.886Z,10.1
2023-05-11T12:44:28.485Z,9.5
2023-05-11T12:45:36.880Z,9.5
2023-05-11T12:46:45.286Z,9.5
2023-05-11T12:47:53.834Z,7.3
2023-05-11T12:49:02.194Z,7.3
2023-05-11T12:50:10.538Z,7.3
2023-05-11T12:51:19.106Z,6.3
2023-05-11T12:52:27.456Z,6.3
2023-05-11T12:53:35.851Z,6.3
2023-05-11T12:54:44.433Z,5.6
2023-05-11T12:55:52.774Z,5.6
2023-05-11T12:57:01.140Z,5.6
2023-05-11T12:58:09.726Z,5.3
2023-05-11T12:59:18.148Z,5.3
2023-05-11T13:00:26.479Z,5.3
2023-05-11T13:01:35.146Z,4.6
2023-05-11T13:02:43.510Z,4.6
2023-05-11T13:03:51.904Z,4.6
2023-05-11T13:05:00.346Z,3.5
2023-05-11T13:06:08.677Z,3.5
2023-05-11T13:07:17.045Z,3.5
2023-05-11T13:08:25.618Z,3.2
2023-05-11T13:09:34.003Z,3.2
2023-05-11T13:10:42.316Z,3.2
2023-05-11T13:11:50.890Z,2.9
2023-05-11T13:12:59.251Z,2.9
2023-05-11T13:14:07.609Z,2.9
2023-05-11T13:15:16.330Z,2.7
2023-05-11T13:16:24.672Z,2.7
2023-05-11T13:17:33.026Z,2.7
2023-05-11T13:18:41.565Z,2.9
2023-05-11T13:19:49.908Z,2.9
2023-05-11T13:20:58.296Z,2.9
2023-05-11T13:22:06.856Z,2.7
2023-05-11T13:23:15.218Z,2.7
2023-05-11T13:24:23.591Z,2.7
2023-05-11T13:25:32.140Z,3.3
2023-05-11T13:26:40.537Z,3.3
2023-05-11T13:27:48.958Z,3.3
2023-05-11T13:29:09.113Z,3.6
2023-05-11T13:30:05.887Z,3.6
2023-05-11T13:31:14.334Z,3.6
2023-05-11T13:32:22.907Z,4.4
2023-05-11T13:33:31.209Z,4.4
2023-05-11T13:34:39.544Z,4.4
2023-05-11T13:35:48.138Z,3.8
2023-05-11T13:36:56.498Z,3.8
2023-05-11T13:38:04.882Z,3.8
2023-05-11T13:39:13.481Z,3.3
2023-05-11T13:40:21.854Z,3.3
2023-05-11T13:41:30.241Z,3.3
2023-05-11T13:42:38.797Z,3
2023-05-11T13:43:47.198Z,3
2023-05-11T13:44:55.571Z,3
2023-05-11T13:46:04.164Z,2.1
2023-05-11T13:47:12.619Z,2.1
2023-05-11T13:48:20.949Z,2.1
2023-05-11T13:49:29.547Z,2.3
2023-05-11T13:50:37.905Z,2.3
2023-05-11T13:51:46.241Z,2.3
2023-05-11T13:52:54.792Z,2.3
2023-05-11T13:54:03.142Z,2.3
2023-05-11T13:55:11.507Z,2.3
2023-05-11T13:56:20.102Z,2.3
2023-05-11T13:57:28.487Z,2.3
2023-05-11T13:58:36.779Z,2.3
2023-05-11T13:59:45.484Z,3.6
2023-05-11T14:01:06.999Z,3.6
2023-05-11T14:02:02.289Z,3.6
2023-05-11T14:03:10.877Z,2.9
2023-05-11T14:04:19.083Z,2.9
2023-05-11T14:05:27.463Z,2.9
2023-05-11T14:06:36.006Z,2.8
2023-05-11T14:07:48.039Z,2.8
2023-05-11T14:08:52.763Z,2.8
2023-05-11T14:10:01.363Z,2.2
2023-05-11T14:11:09.781Z,2.2
2023-05-11T14:12:18.133Z,2.2
2023-05-11T14:13:26.718Z,1.6
2023-05-11T14:14:35.077Z,1.6
2023-05-11T14:15:43.474Z,1.6
2023-05-11T14:16:52.023Z,2.2
2023-05-11T14:18:00.518Z,2.2
2023-05-11T14:19:08.874Z,2.2
2023-05-11T14:20:17.384Z,1.5
2023-05-11T14:21:25.772Z,1.5
2023-05-11T14:22:34.078Z,1.5
2023-05-11T14:23:50.176Z,1.9
2023-05-11T14:24:51.006Z,1.9
2023-05-11T14:25:59.342Z,1.9
2023-05-11T14:27:07.903Z,2.2
2023-05-11T14:28:16.280Z,2.2
2023-05-11T14:29:24.629Z,2.2
2023-05-11T14:30:33.243Z,2.3
2023-05-11T14:31:41.576Z,2.3
2023-05-11T14:32:49.981Z,2.3
2023-05-11T14:33:58.491Z,1.8
2023-05-11T14:35:06.870Z,1.8
2023-05-11T14:36:15.198Z,1.8
2023-05-11T14:37:23.875Z,4
2023-05-11T14:38:32.186Z,4
2023-05-11T14:39:40.508Z,4
2023-05-11T14:40:50.465Z,1.7
2023-05-11T14:41:57.488Z,1.7
2023-05-11T14:43:05.857Z,1.7
2023-05-11T14:44:14.423Z,1.8
2023-05-11T14:45:25.610Z,1.8
2023-05-11T14:46:33.981Z,1.8
2023-05-11T14:47:42.568Z,3
2023-05-11T14:48:50.924Z,3
2023-05-11T14:49:59.256Z,3
2023-05-11T14:51:07.850Z,2.6
2023-05-11T14:52:16.218Z,2.6
2023-05-11T14:53:24.667Z,2.6
2023-05-11T14:54:33.126Z,2.2
2023-05-11T14:55:41.721Z,2.2
2023-05-11T14:56:50.127Z,2.2
2023-05-11T14:57:58.658Z,2.4
2023-05-11T14:59:07.001Z,2.4
2023-05-11T15:00:15.879Z,2.4
2023-05-11T15:01:24.471Z,2.3
2023-05-11T15:02:32.878Z,2.3
2023-05-11T15:03:41.185Z,2.3
2023-05-11T15:04:49.754Z,2.3
2023-05-11T15:05:58.167Z,2.3
2023-05-11T15:07:06.544Z,2.3
2023-05-11T15:08:26.106Z,2.1
2023-05-11T15:09:23.516Z,2.1
2023-05-11T15:10:31.941Z,2.1
2023-05-11T15:11:40.626Z,2.7
2023-05-11T15:46:03.653Z,0
2023-05-11T15:47:11.807Z,0
2023-05-11T15:48:20.154Z,0
2023-05-11T15:49:28.699Z,4.2
2023-05-11T15:50:37.069Z,4.2
2023-05-11T15:51:45.400Z,4.2
2023-05-11T15:52:53.970Z,3.7
2023-05-11T15:54:02.368Z,3.7
2023-05-11T15:55:10.700Z,3.7
2023-05-11T15:56:19.270Z,3.6
2023-05-11T15:57:27.619Z,3.6
2023-05-11T15:58:35.993Z,3.6
2023-05-11T15:59:44.592Z,3.8
2023-05-11T16:00:52.968Z,3.8
2023-05-11T16:02:01.408Z,3.8
2023-05-11T16:03:09.971Z,2.9
2023-05-11T16:04:18.270Z,2.9
2023-05-11T16:05:26.662Z,2.9
2023-05-11T16:06:35.206Z,2.9
2023-05-11T16:07:43.549Z,2.9
2023-05-11T16:08:52.221Z,2.9
2023-05-11T16:10:00.815Z,3.8
2023-05-11T16:11:09.267Z,3.8
2023-05-11T16:12:24.075Z,3.8
2023-05-11T16:13:34.598Z,3.2
2023-05-11T16:14:42.944Z,3.2
2023-05-11T16:15:51.321Z,3.2
2023-05-11T16:16:59.984Z,5.2
2023-05-11T16:18:08.337Z,5.2
2023-05-11T16:19:16.682Z,5.2
2023-05-11T16:20:25.275Z,3.1
2023-05-11T16:21:33.600Z,3.1
2023-05-11T16:22:41.939Z,3.1
2023-05-11T16:23:50.489Z,16.9
2023-05-11T16:24:58.834Z,16.9
2023-05-11T16:26:07.191Z,16.9